Time;durP1;ratioP1;P1;durP2;ratioP2;P2;SDS_P1;SDS_P2;PMS_P1;PMS_P2;Temp;Humidity;BMP_temperature;BMP_pressure;BME280_temperature;BME280_humidity;BME280_pressure;Samples;Min_cycle;Max_cycle;Signal;HPM_P1;HPM_P2
2022/03/26 00:02:00;;;;;;;85.28;43.05;;;3.30;99.90;;;;;;5023351;28;20427;-77
2022/03/26 00:04:28;;;;;;;76.70;43.22;;;3.20;99.90;;;;;;5005308;28;20053;-77
2022/03/26 00:06:55;;;;;;;76.38;45.20;;;3.20;99.90;;;;;;5021826;28;20562;-78
2022/03/26 00:09:22;;;;;;;75.43;43.42;;;3.20;99.90;;;;;;5023702;28;20523;-77
2022/03/26 00:11:48;;;;;;;75.10;43.63;;;3.10;99.90;;;;;;5030994;28;20593;-76
2022/03/26 00:14:15;;;;;;;73.63;43.42;;;3.00;99.90;;;;;;5040094;28;20087;-77
2022/03/26 00:16:42;;;;;;;80.88;42.58;;;3.10;99.90;;;;;;5042502;28;20083;-78
2022/03/26 00:19:09;;;;;;;81.95;43.65;;;3.10;99.90;;;;;;5038587;28;20133;-77
2022/03/26 00:21:36;;;;;;;72.13;42.30;;;3.00;99.90;;;;;;4988977;28;20057;-75
2022/03/26 00:24:03;;;;;;;78.07;42.92;;;3.00;99.90;;;;;;5004844;28;20347;-76
2022/03/26 00:26:30;;;;;;;80.50;42.67;;;2.90;99.90;;;;;;5022220;28;20114;-75
2022/03/26 00:28:56;;;;;;;85.72;43.85;;;3.00;99.90;;;;;;5005261;28;20050;-78
2022/03/26 00:31:23;;;;;;;82.97;42.17;;;3.30;99.90;;;;;;5004255;28;20100;-76
2022/03/26 00:33:52;;;;;;;81.90;43.75;;;3.20;99.90;;;;;;5003334;28;20100;-77
2022/03/26 00:36:18;;;;;;;76.88;42.33;;;3.20;99.90;;;;;;5004590;28;20061;-78
2022/03/26 00:38:45;;;;;;;80.18;43.08;;;3.20;99.90;;;;;;5022628;28;20500;-75
2022/03/26 00:41:12;;;;;;;81.60;43.75;;;3.10;99.90;;;;;;5010525;28;20399;-77
2022/03/26 00:43:39;;;;;;;73.53;43.45;;;3.00;99.90;;;;;;5007223;28;20041;-76
2022/03/26 00:46:05;;;;;;;74.28;41.70;;;3.00;99.90;;;;;;5021294;28;20155;-76
2022/03/26 00:48:33;;;;;;;70.28;41.90;;;2.90;99.90;;;;;;5028195;28;20059;-76
2022/03/26 00:51:00;;;;;;;80.00;44.28;;;2.90;99.90;;;;;;5030444;28;20406;-76
2022/03/26 00:53:26;;;;;;;84.80;43.90;;;2.80;99.90;;;;;;5021706;28;20049;-76
2022/03/26 00:55:53;;;;;;;80.65;42.50;;;2.80;99.90;;;;;;5021405;28;20296;-76
2022/03/26 00:58:20;;;;;;;80.68;42.40;;;2.80;99.90;;;;;;5004477;28;20053;-76
2022/03/26 01:00:47;;;;;;;78.32;43.22;;;2.70;99.90;;;;;;5019715;28;20076;-78
2022/03/26 01:03:16;;;;;;;75.05;42.08;;;2.70;99.90;;;;;;5022446;28;20045;-76
2022/03/26 01:05:43;;;;;;;78.80;42.60;;;2.70;99.90;;;;;;5019493;28;20092;-76
2022/03/26 01:08:10;;;;;;;87.00;43.83;;;2.70;99.90;;;;;;5007149;28;20045;-77
2022/03/26 01:10:37;;;;;;;76.45;42.03;;;2.70;99.90;;;;;;5021028;28;20064;-75
2022/03/26 01:13:04;;;;;;;79.45;42.35;;;2.70;99.90;;;;;;5032847;28;20573;-77
2022/03/26 01:15:31;;;;;;;84.18;44.40;;;2.70;99.90;;;;;;5042246;28;20150;-77
2022/03/26 01:17:58;;;;;;;70.60;43.15;;;2.70;99.90;;;;;;5043154;28;20316;-76
2022/03/26 01:20:24;;;;;;;81.47;42.65;;;2.70;99.90;;;;;;5040106;28;20118;-76
2022/03/26 01:22:51;;;;;;;77.65;42.97;;;2.70;99.90;;;;;;5023921;28;20089;-76
2022/03/26 01:25:18;;;;;;;76.85;41.67;;;2.70;99.90;;;;;;5020238;28;20058;-76
2022/03/26 01:27:45;;;;;;;76.95;43.60;;;2.70;99.90;;;;;;5002868;28;20072;-76
2022/03/26 01:30:12;;;;;;;82.50;45.42;;;2.60;99.90;;;;;;5008452;28;20077;-76
2022/03/26 01:32:39;;;;;;;73.80;43.28;;;2.70;99.90;;;;;;5020949;28;20247;-76
2022/03/26 01:35:06;;;;;;;79.15;42.88;;;2.60;99.90;;;;;;5021028;28;20072;-76
2022/03/26 01:37:33;;;;;;;72.78;41.97;;;2.70;99.90;;;;;;5003554;28;20110;-76
2022/03/26 01:39:59;;;;;;;77.07;41.38;;;2.60;99.90;;;;;;5020489;28;20128;-76
2022/03/26 01:42:26;;;;;;;90.63;45.75;;;2.60;99.90;;;;;;5012304;28;20084;-76
2022/03/26 01:44:53;;;;;;;82.85;43.30;;;2.60;99.90;;;;;;5022501;28;20102;-76
2022/03/26 01:47:20;;;;;;;83.20;45.13;;;2.60;99.90;;;;;;5040780;28;20457;-76
2022/03/26 01:49:46;;;;;;;88.40;43.20;;;2.70;99.90;;;;;;5041291;28;20069;-75
2022/03/26 01:52:13;;;;;;;83.80;41.78;;;2.80;99.90;;;;;;5036673;28;20104;-76
2022/03/26 01:54:41;;;;;;;86.70;41.90;;;2.70;99.90;;;;;;5018594;28;20103;-75
2022/03/26 01:57:10;;;;;;;81.55;41.88;;;2.60;99.90;;;;;;5002867;28;20077;-75
2022/03/26 01:59:39;;;;;;;78.28;41.05;;;2.70;99.90;;;;;;5020331;28;20064;-76
2022/03/26 02:02:07;;;;;;;81.93;41.47;;;2.60;99.90;;;;;;5020132;28;20075;-75
2022/03/26 02:04:36;;;;;;;86.38;42.25;;;2.60;99.90;;;;;;5020175;28;20100;-78
2022/03/26 02:07:04;;;;;;;75.10;38.95;;;2.60;99.90;;;;;;5019729;28;20056;-78
2022/03/26 02:09:35;;;;;;;82.47;42.60;;;2.60;99.90;;;;;;5020186;28;20443;-76
2022/03/26 02:12:03;;;;;;;83.03;41.72;;;2.50;99.90;;;;;;4996971;28;20136;-75
2022/03/26 02:14:30;;;;;;;87.90;42.10;;;2.50;99.90;;;;;;5020379;28;20127;-75
2022/03/26 02:16:56;;;;;;;89.25;42.85;;;2.50;99.90;;;;;;5020138;28;20077;-78
2022/03/26 02:19:23;;;;;;;91.10;41.35;;;2.70;99.90;;;;;;4986339;28;20515;-75
2022/03/26 02:21:50;;;;;;;89.25;41.75;;;2.80;99.90;;;;;;5019736;28;20041;-78
2022/03/26 02:24:17;;;;;;;86.80;40.13;;;2.80;99.90;;;;;;5018517;28;20500;-78
2022/03/26 02:26:44;;;;;;;87.60;39.78;;;2.80;99.90;;;;;;5001825;28;20095;-77
2022/03/26 02:29:12;;;;;;;72.65;39.25;;;2.70;99.90;;;;;;5002580;28;20136;-77
2022/03/26 02:31:39;;;;;;;78.07;38.50;;;2.70;99.90;;;;;;5020337;28;20037;-77
2022/03/26 02:34:07;;;;;;;77.15;40.15;;;2.70;99.90;;;;;;5019440;28;20049;-77
2022/03/26 02:36:34;;;;;;;81.20;42.13;;;2.50;99.90;;;;;;5021337;28;20109;-78
2022/03/26 02:39:03;;;;;;;74.57;39.55;;;2.50;99.90;;;;;;5003658;28;20131;-77
2022/03/26 02:41:31;;;;;;;80.38;39.10;;;2.30;99.90;;;;;;5010629;28;20109;-77
2022/03/26 02:43:57;;;;;;;74.35;39.75;;;2.30;99.90;;;;;;5021956;28;20045;-77
2022/03/26 02:46:24;;;;;;;77.60;38.40;;;2.20;99.90;;;;;;4997371;28;20069;-77
2022/03/26 02:48:51;;;;;;;82.47;41.63;;;2.20;99.90;;;;;;5003807;28;20049;-77
2022/03/26 02:51:18;;;;;;;70.78;38.70;;;2.20;99.90;;;;;;5026741;28;20487;-77
2022/03/26 02:53:45;;;;;;;76.43;39.58;;;2.10;99.90;;;;;;5004082;28;20053;-77
2022/03/26 02:56:11;;;;;;;75.65;39.25;;;2.10;99.90;;;;;;4987237;28;20072;-77
2022/03/26 02:58:38;;;;;;;68.75;36.75;;;2.00;99.90;;;;;;4992114;28;20103;-77
2022/03/26 03:01:05;;;;;;;75.97;38.88;;;2.00;99.90;;;;;;5018041;28;20589;-77
2022/03/26 03:03:32;;;;;;;70.15;36.95;;;2.00;99.90;;;;;;5024248;28;20100;-77
2022/03/26 03:05:58;;;;;;;72.40;37.35;;;1.90;99.90;;;;;;5022553;28;20141;-77
2022/03/26 03:08:25;;;;;;;77.65;38.45;;;1.90;99.90;;;;;;5024561;28;20219;-76
2022/03/26 03:10:53;;;;;;;69.47;36.15;;;1.80;99.90;;;;;;5028823;28;20048;-77
2022/03/26 03:13:21;;;;;;;66.07;36.55;;;1.70;99.90;;;;;;5035190;28;20061;-77
2022/03/26 03:15:49;;;;;;;68.80;36.92;;;1.80;99.90;;;;;;5032982;28;20050;-77
2022/03/26 03:18:17;;;;;;;70.47;37.15;;;1.90;99.90;;;;;;5006110;28;20592;-77
2022/03/26 03:20:44;;;;;;;67.60;34.80;;;1.90;99.90;;;;;;5004645;28;20069;-77
2022/03/26 03:23:13;;;;;;;65.75;34.65;;;1.80;99.90;;;;;;5006368;28;20076;-77
2022/03/26 03:25:40;;;;;;;80.43;36.80;;;1.70;99.90;;;;;;5004141;28;20058;-76
2022/03/26 03:28:07;;;;;;;80.82;40.50;;;1.70;99.90;;;;;;5023892;28;20062;-76
2022/03/26 03:30:34;;;;;;;80.10;37.50;;;1.80;99.90;;;;;;5023094;28;20067;-77
2022/03/26 03:33:01;;;;;;;78.68;38.67;;;1.80;99.90;;;;;;5021236;28;20522;-77
2022/03/26 03:35:27;;;;;;;86.05;39.58;;;1.80;99.90;;;;;;5021874;28;20045;-77
2022/03/26 03:37:54;;;;;;;81.38;38.25;;;1.70;99.90;;;;;;5005894;28;20607;-77
2022/03/26 03:40:21;;;;;;;86.38;38.97;;;1.70;99.90;;;;;;5023668;28;20061;-77
2022/03/26 03:42:48;;;;;;;86.05;38.38;;;1.80;99.90;;;;;;5033794;28;20543;-77
2022/03/26 03:45:15;;;;;;;81.57;38.13;;;1.60;99.90;;;;;;5023257;28;20289;-76
2022/03/26 03:47:41;;;;;;;79.68;36.15;;;1.70;99.90;;;;;;5008726;28;20557;-77
2022/03/26 03:50:09;;;;;;;72.90;34.80;;;1.60;99.90;;;;;;5041737;28;20121;-77
2022/03/26 03:52:35;;;;;;;80.38;36.20;;;1.60;99.90;;;;;;5025272;28;20123;-77
2022/03/26 03:55:03;;;;;;;70.30;35.53;;;1.50;99.90;;;;;;5007679;28;20418;-77
2022/03/26 03:57:30;;;;;;;76.40;36.65;;;1.50;99.90;;;;;;5022016;28;20068;-77
2022/03/26 03:59:56;;;;;;;80.40;37.65;;;1.50;99.90;;;;;;5022596;28;20130;-77
2022/03/26 04:02:24;;;;;;;75.10;36.75;;;1.50;99.90;;;;;;5022344;28;20042;-77
2022/03/26 04:04:51;;;;;;;89.35;37.95;;;1.60;99.90;;;;;;5022140;28;20433;-77
2022/03/26 04:07:18;;;;;;;83.88;38.15;;;1.50;99.90;;;;;;5020569;28;20153;-77
2022/03/26 04:09:44;;;;;;;77.88;36.83;;;1.50;99.90;;;;;;5023158;28;20081;-77
2022/03/26 04:12:11;;;;;;;73.15;36.50;;;1.50;99.90;;;;;;5030630;28;20683;-76
2022/03/26 04:14:43;;;;;;;75.97;36.08;;;1.30;99.90;;;;;;5023757;28;20107;-77
2022/03/26 04:17:11;;;;;;;78.30;36.47;;;1.30;99.90;;;;;;5037972;28;20423;-77
2022/03/26 04:19:38;;;;;;;76.38;36.80;;;1.30;99.90;;;;;;5004783;28;20553;-77
2022/03/26 04:22:06;;;;;;;68.82;35.88;;;1.30;99.90;;;;;;5022059;28;20524;-77
2022/03/26 04:24:35;;;;;;;77.50;37.50;;;1.30;99.90;;;;;;5022500;28;20069;-76
2022/03/26 04:27:03;;;;;;;72.80;35.72;;;1.30;99.90;;;;;;5022337;28;20241;-76
2022/03/26 04:29:30;;;;;;;85.63;38.65;;;1.30;99.90;;;;;;5004288;28;20107;-77
2022/03/26 04:31:57;;;;;;;84.68;37.80;;;1.20;99.90;;;;;;5007953;28;20307;-77
2022/03/26 04:34:25;;;;;;;84.35;38.83;;;1.40;99.90;;;;;;4987807;28;20077;-77
2022/03/26 04:36:52;;;;;;;83.43;37.50;;;1.60;99.90;;;;;;5022256;28;20065;-77
2022/03/26 04:39:19;;;;;;;75.25;36.42;;;1.50;99.90;;;;;;5022532;28;20087;-77
2022/03/26 04:41:47;;;;;;;70.47;36.83;;;1.40;99.90;;;;;;4978144;23;20373;-75
2022/03/26 04:44:14;;;;;;;80.10;38.20;;;1.20;99.90;;;;;;5002392;28;20112;-75
2022/03/26 04:46:41;;;;;;;77.90;38.70;;;1.20;99.90;;;;;;4984657;28;20100;-75
2022/03/26 04:49:08;;;;;;;88.78;40.78;;;1.20;99.90;;;;;;4980163;28;20266;-75
2022/03/26 04:51:35;;;;;;;93.53;39.72;;;1.10;99.90;;;;;;5015393;28;20096;-75
2022/03/26 04:54:02;;;;;;;85.90;39.95;;;1.20;99.90;;;;;;4985250;28;20054;-75
2022/03/26 04:56:28;;;;;;;97.50;40.42;;;1.20;99.90;;;;;;4984234;28;20049;-75
2022/03/26 04:58:55;;;;;;;98.50;38.97;;;1.20;99.90;;;;;;5003324;28;20096;-75
2022/03/26 05:01:22;;;;;;;91.57;39.38;;;1.30;99.90;;;;;;5001169;28;20058;-75
2022/03/26 05:03:49;;;;;;;96.28;38.58;;;1.50;99.90;;;;;;5003725;28;20446;-75
2022/03/26 05:06:16;;;;;;;95.88;39.53;;;1.40;99.90;;;;;;5000766;28;20060;-75
2022/03/26 05:08:43;;;;;;;90.28;38.50;;;1.30;99.90;;;;;;5001695;28;20058;-75
2022/03/26 05:11:10;;;;;;;82.60;37.05;;;1.40;99.90;;;;;;4991973;28;20159;-75
2022/03/26 05:13:37;;;;;;;85.88;36.42;;;1.30;99.90;;;;;;5010551;28;20458;-75
2022/03/26 05:16:04;;;;;;;77.85;36.88;;;1.20;99.90;;;;;;5005204;28;20057;-75
2022/03/26 05:18:31;;;;;;;85.07;39.13;;;1.10;99.90;;;;;;5026013;28;20045;-75
2022/03/26 05:20:58;;;;;;;83.30;37.15;;;1.10;99.90;;;;;;5023744;28;20076;-75
2022/03/26 05:23:25;;;;;;;82.05;38.47;;;1.00;99.90;;;;;;4984167;28;20058;-75
2022/03/26 05:25:52;;;;;;;96.82;39.90;;;1.10;99.90;;;;;;4982624;28;20100;-75
2022/03/26 05:28:19;;;;;;;99.32;40.95;;;1.20;99.90;;;;;;4974848;28;20050;-75
2022/03/26 05:30:50;;;;;;;79.88;38.42;;;1.00;99.90;;;;;;4995322;28;20424;-75
2022/03/26 05:33:17;;;;;;;83.30;38.03;;;1.00;99.90;;;;;;4975828;28;20674;-75
2022/03/26 05:35:44;;;;;;;74.00;37.38;;;1.00;99.90;;;;;;4965095;28;20058;-75
2022/03/26 05:38:11;;;;;;;74.60;36.63;;;1.00;99.90;;;;;;4983111;28;20496;-75
2022/03/26 05:40:38;;;;;;;83.07;37.83;;;1.00;99.90;;;;;;4990233;28;20072;-75
2022/03/26 05:43:04;;;;;;;82.18;36.90;;;0.90;99.90;;;;;;4995056;28;20046;-75
2022/03/26 05:45:31;;;;;;;89.88;39.75;;;0.90;99.90;;;;;;4968021;28;20531;-75
2022/03/26 05:48:02;;;;;;;71.43;37.95;;;1.00;99.90;;;;;;4968440;28;20104;-75
2022/03/26 05:50:29;;;;;;;74.03;38.08;;;0.90;99.90;;;;;;4982878;28;20592;-75
2022/03/26 05:52:57;;;;;;;87.38;39.13;;;0.90;99.90;;;;;;5001887;28;20046;-75
2022/03/26 05:55:23;;;;;;;88.60;38.60;;;1.00;99.90;;;;;;4983879;28;20384;-75
2022/03/26 05:57:50;;;;;;;89.97;38.67;;;1.30;99.90;;;;;;4981448;28;20050;-75
2022/03/26 06:00:17;;;;;;;78.20;38.15;;;1.40;99.90;;;;;;4980920;28;20050;-75
2022/03/26 06:02:44;;;;;;;79.55;38.95;;;1.40;99.90;;;;;;4982041;28;20322;-75
2022/03/26 06:05:12;;;;;;;82.20;38.33;;;1.30;99.90;;;;;;4980363;28;20078;-75
2022/03/26 06:07:39;;;;;;;92.22;40.17;;;1.30;99.90;;;;;;4978232;28;20058;-75
2022/03/26 06:10:06;;;;;;;87.30;38.85;;;1.40;99.90;;;;;;4982175;28;20046;-75
2022/03/26 06:12:32;;;;;;;91.20;39.28;;;1.70;99.90;;;;;;5008149;28;20565;-75
2022/03/26 06:14:59;;;;;;;98.05;41.28;;;1.90;99.90;;;;;;5001197;28;20057;-75
2022/03/26 06:17:26;;;;;;;95.82;40.58;;;2.00;99.90;;;;;;4983293;28;20046;-75
2022/03/26 06:19:53;;;;;;;93.13;40.38;;;1.90;99.90;;;;;;4982751;28;20085;-75
2022/03/26 06:22:19;;;;;;;78.47;36.60;;;1.80;99.90;;;;;;4970177;28;20096;-75
2022/03/26 06:24:46;;;;;;;73.60;36.63;;;1.90;99.90;;;;;;4966642;28;20037;-75
2022/03/26 06:27:13;;;;;;;73.72;36.17;;;1.90;99.90;;;;;;4987398;28;20066;-75
2022/03/26 06:29:39;;;;;;;75.95;35.83;;;2.00;99.90;;;;;;5006820;28;20595;-75
2022/03/26 06:32:07;;;;;;;76.50;36.17;;;2.00;99.90;;;;;;4981310;28;20038;-76
2022/03/26 06:34:33;;;;;;;81.68;36.13;;;2.00;99.90;;;;;;5001006;28;20128;-75
2022/03/26 06:37:00;;;;;;;68.20;35.67;;;2.10;99.90;;;;;;5000510;28;20471;-75
2022/03/26 06:39:27;;;;;;;82.55;37.95;;;2.10;99.90;;;;;;4982541;28;20050;-75
2022/03/26 06:41:54;;;;;;;73.53;37.22;;;2.20;99.90;;;;;;5007802;28;20041;-75
2022/03/26 06:44:20;;;;;;;73.40;37.35;;;2.30;99.90;;;;;;4985350;28;20049;-75
2022/03/26 06:46:47;;;;;;;79.80;39.60;;;2.60;99.90;;;;;;4982777;28;20046;-75
2022/03/26 06:49:14;;;;;;;78.85;37.95;;;2.60;99.90;;;;;;4983276;28;20112;-75
2022/03/26 06:51:41;;;;;;;80.70;35.90;;;2.70;99.90;;;;;;4982898;28;20060;-75
2022/03/26 06:54:08;;;;;;;73.65;35.40;;;3.00;99.90;;;;;;4974074;28;20133;-75
2022/03/26 06:56:35;;;;;;;75.47;34.88;;;3.20;99.90;;;;;;5001455;28;20057;-75
2022/03/26 06:59:01;;;;;;;77.80;35.80;;;3.30;99.90;;;;;;5008657;28;20316;-75
2022/03/26 07:01:28;;;;;;;70.22;35.13;;;3.30;99.90;;;;;;4982458;28;20470;-75
2022/03/26 07:03:58;;;;;;;80.32;39.22;;;3.50;99.90;;;;;;4982379;28;20421;-75
2022/03/26 07:06:25;;;;;;;72.93;37.17;;;3.90;99.90;;;;;;4997953;28;20555;-75
2022/03/26 07:08:52;;;;;;;84.07;37.00;;;4.20;99.90;;;;;;5000829;28;20401;-75
2022/03/26 07:11:20;;;;;;;74.82;36.55;;;4.60;99.90;;;;;;5004715;28;20240;-75
2022/03/26 07:13:47;;;;;;;70.63;35.13;;;4.70;99.90;;;;;;5012426;28;20076;-75
2022/03/26 07:16:13;;;;;;;65.57;34.50;;;4.90;99.90;;;;;;4996798;28;20101;-75
2022/03/26 07:18:40;;;;;;;66.80;37.67;;;5.00;99.90;;;;;;4980818;28;20556;-75
2022/03/26 07:21:08;;;;;;;68.47;37.78;;;5.30;99.90;;;;;;4972771;28;20050;-75
2022/03/26 07:23:35;;;;;;;69.53;36.80;;;5.70;99.90;;;;;;4950237;28;20530;-75
2022/03/26 07:26:02;;;;;;;65.03;35.72;;;6.00;99.90;;;;;;4982358;28;20578;-75
2022/03/26 07:28:29;;;;;;;74.97;42.97;;;6.20;99.90;;;;;;4993000;28;20385;-75
2022/03/26 07:30:55;;;;;;;64.80;37.65;;;6.40;99.90;;;;;;4997325;28;20061;-75
2022/03/26 07:33:22;;;;;;;78.38;42.40;;;6.50;99.90;;;;;;5000476;28;20046;-75
2022/03/26 07:35:49;;;;;;;78.03;44.80;;;6.80;99.90;;;;;;4981738;28;20096;-76
2022/03/26 07:38:15;;;;;;;60.85;41.42;;;7.20;99.90;;;;;;4982584;28;20053;-76
2022/03/26 07:40:42;;;;;;;63.88;40.45;;;7.70;99.90;;;;;;4984634;28;20050;-75
2022/03/26 07:43:09;;;;;;;57.17;41.05;;;8.10;99.90;;;;;;5012643;28;20045;-76
2022/03/26 07:45:36;;;;;;;59.63;43.28;;;8.80;99.90;;;;;;5005325;28;20049;-76
2022/03/26 07:48:03;;;;;;;55.92;43.75;;;9.30;99.90;;;;;;5007223;28;20324;-76
2022/03/26 07:50:31;;;;;;;60.60;44.58;;;9.90;99.90;;;;;;5031303;28;20053;-76
2022/03/26 07:52:58;;;;;;;59.47;46.20;;;10.30;99.90;;;;;;5025984;28;20057;-76
2022/03/26 07:55:25;;;;;;;62.28;47.30;;;10.90;99.90;;;;;;4984567;28;20061;-76
2022/03/26 07:57:51;;;;;;;62.42;48.17;;;11.50;99.90;;;;;;5012839;28;20089;-76
2022/03/26 08:00:18;;;;;;;55.58;46.90;;;12.10;99.90;;;;;;5021976;28;20096;-76
2022/03/26 08:02:45;;;;;;;60.28;46.67;;;12.40;99.90;;;;;;5024702;28;20107;-76
2022/03/26 08:05:12;;;;;;;57.75;45.53;;;12.70;99.90;;;;;;4988915;28;20062;-76
2022/03/26 08:07:39;;;;;;;60.30;43.08;;;13.00;99.90;;;;;;4988590;28;20301;-76
2022/03/26 08:10:06;;;;;;;57.80;42.75;;;13.30;99.90;;;;;;5004366;28;20562;-76
2022/03/26 08:12:32;;;;;;;57.35;48.70;;;13.10;99.90;;;;;;4997049;28;20061;-76
2022/03/26 08:14:59;;;;;;;60.53;48.72;;;13.20;99.90;;;;;;4985550;28;20149;-77
2022/03/26 08:17:30;;;;;;;51.55;45.97;;;13.40;99.90;;;;;;5003430;28;20547;-76
2022/03/26 08:19:56;;;;;;;60.38;46.20;;;13.60;99.90;;;;;;4969228;28;20156;-76
2022/03/26 08:22:23;;;;;;;56.88;45.63;;;13.80;99.90;;;;;;4985049;28;20077;-76
2022/03/26 08:24:50;;;;;;;60.50;49.60;;;14.00;99.90;;;;;;4985528;28;20548;-76
2022/03/26 08:27:17;;;;;;;55.65;48.97;;;14.40;99.90;;;;;;4995944;28;20052;-76
2022/03/26 08:29:44;;;;;;;59.63;48.83;;;14.30;99.90;;;;;;4955132;28;20153;-76
2022/03/26 08:32:10;;;;;;;59.90;47.05;;;14.40;99.90;;;;;;4985254;28;20105;-76
2022/03/26 08:34:37;;;;;;;60.58;48.17;;;14.40;99.90;;;;;;5003654;28;20162;-77
2022/03/26 08:37:04;;;;;;;52.17;46.45;;;14.40;99.90;;;;;;5002530;28;20084;-76
2022/03/26 08:39:31;;;;;;;53.92;48.42;;;14.50;99.90;;;;;;5003934;28;20073;-76
2022/03/26 08:41:57;;;;;;;57.63;49.00;;;14.80;99.90;;;;;;5007585;28;20042;-77
2022/03/26 08:44:25;;;;;;;55.22;49.25;;;14.80;99.90;;;;;;5001681;28;20806;-76
2022/03/26 08:46:52;;;;;;;56.90;46.90;;;14.90;99.90;;;;;;5021937;28;20204;-77
2022/03/26 08:49:19;;;;;;;54.75;46.95;;;15.00;99.90;;;;;;5020900;28;20295;-77
2022/03/26 08:51:45;;;;;;;51.63;45.55;;;15.10;99.90;;;;;;4964459;28;20275;-76
2022/03/26 08:54:12;;;;;;;54.10;48.25;;;15.20;99.90;;;;;;4993671;28;20144;-76
2022/03/26 08:56:39;;;;;;;54.03;47.25;;;15.40;99.90;;;;;;5001286;28;20483;-76
2022/03/26 08:59:06;;;;;;;54.58;48.65;;;15.30;99.90;;;;;;5002073;28;20695;-76
2022/03/26 09:01:33;;;;;;;50.58;45.47;;;15.10;99.90;;;;;;4981198;28;20138;-76
2022/03/26 09:04:00;;;;;;;50.17;45.03;;;15.30;99.90;;;;;;4985687;28;20140;-76
2022/03/26 09:06:29;;;;;;;51.20;44.70;;;15.60;99.90;;;;;;4982563;28;20520;-76
2022/03/26 09:08:56;;;;;;;51.17;45.63;;;15.80;99.90;;;;;;4988100;28;20080;-77
2022/03/26 09:11:22;;;;;;;54.75;47.25;;;15.90;99.90;;;;;;4997069;28;20038;-77
2022/03/26 09:13:50;;;;;;;54.03;48.30;;;15.90;99.90;;;;;;5000401;28;20375;-77
2022/03/26 09:16:17;;;;;;;56.88;50.17;;;15.70;99.90;;;;;;5024226;28;20054;-76
2022/03/26 09:18:44;;;;;;;60.78;47.08;;;15.70;99.90;;;;;;4991256;28;20805;-76
2022/03/26 09:21:11;;;;;;;54.65;47.13;;;15.30;99.90;;;;;;5016290;28;20053;-77
2022/03/26 09:23:38;;;;;;;57.47;48.88;;;15.30;99.90;;;;;;4985504;28;20057;-76
2022/03/26 09:26:05;;;;;;;58.55;49.03;;;15.20;99.90;;;;;;4984763;28;20518;-76
2022/03/26 09:28:31;;;;;;;55.33;48.30;;;15.40;99.90;;;;;;4986777;28;20104;-76
2022/03/26 09:30:58;;;;;;;63.28;50.17;;;15.50;99.90;;;;;;4983132;28;20050;-75
2022/03/26 09:33:25;;;;;;;61.95;51.25;;;15.40;99.90;;;;;;5003321;28;20397;-75
2022/03/26 09:35:52;;;;;;;63.00;50.80;;;15.50;99.90;;;;;;4984768;28;20451;-76
2022/03/26 09:38:24;;;;;;;67.72;50.85;;;15.50;99.90;;;;;;4985587;28;20077;-76
2022/03/26 09:40:51;;;;;;;60.85;51.67;;;15.60;99.90;;;;;;5006943;28;20049;-77
2022/03/26 09:43:18;;;;;;;55.58;49.65;;;15.60;99.90;;;;;;4996465;28;20088;-76
2022/03/26 09:45:45;;;;;;;57.60;51.55;;;15.70;99.90;;;;;;4988332;28;20057;-76
2022/03/26 09:48:12;;;;;;;59.22;50.90;;;15.60;99.90;;;;;;5003749;28;20104;-76
2022/03/26 09:50:41;;;;;;;66.32;51.90;;;15.70;99.90;;;;;;4987254;28;20048;-77
2022/03/26 09:53:12;;;;;;;57.08;50.17;;;15.50;99.90;;;;;;5006224;28;20264;-78
2022/03/26 09:55:40;;;;;;;54.88;47.65;;;15.60;99.90;;;;;;4990973;28;20042;-78
2022/03/26 09:58:07;;;;;;;58.83;49.67;;;15.60;99.90;;;;;;4978181;28;20038;-78
2022/03/26 10:00:33;;;;;;;52.53;47.15;;;15.80;99.90;;;;;;5009426;28;20054;-79
2022/03/26 10:03:00;;;;;;;50.03;44.97;;;16.10;99.90;;;;;;4989376;28;20397;-78
2022/03/26 10:05:34;;;;;;;51.00;45.78;;;15.90;99.90;;;;;;4989199;28;20381;-79
2022/03/26 10:08:22;;;;;;;55.67;48.47;;;16.20;99.90;;;;;;4989844;28;20050;-78
2022/03/26 10:10:50;;;;;;;52.05;46.47;;;16.40;99.90;;;;;;4992806;28;20054;-78
2022/03/26 10:13:34;;;;;;;54.67;49.20;;;16.50;99.90;;;;;;5001896;28;20498;-78
2022/03/26 10:16:10;;;;;;;55.22;48.90;;;16.30;99.90;;;;;;5036660;28;20045;-78
2022/03/26 10:18:42;;;;;;;51.03;45.70;;;16.30;99.90;;;;;;4994569;28;20069;-79
2022/03/26 10:21:15;;;;;;;53.17;45.97;;;16.30;99.90;;;;;;4988351;28;20057;-79
2022/03/26 10:23:47;;;;;;;52.88;47.67;;;16.50;99.90;;;;;;4989440;28;20076;-80
2022/03/26 10:26:19;;;;;;;53.33;47.70;;;16.60;99.90;;;;;;5005928;28;20112;-79
2022/03/26 10:28:57;;;;;;;53.47;47.80;;;16.70;99.90;;;;;;5000249;28;20641;-80
2022/03/26 10:34:19;;;;;;;51.75;45.95;;;16.80;99.90;;;;;;4999373;28;20054;-80
2022/03/26 10:36:55;;;;;;;54.38;48.45;;;16.90;99.90;;;;;;4982772;28;20046;-80
2022/03/26 10:39:27;;;;;;;53.08;47.50;;;16.80;99.90;;;;;;5013877;28;20073;-80
2022/03/26 10:41:54;;;;;;;53.72;48.30;;;16.90;99.90;;;;;;5029344;23;20107;-78
2022/03/26 10:44:29;;;;;;;52.30;46.92;;;17.00;99.90;;;;;;5002451;28;20073;-78
2022/03/26 10:47:01;;;;;;;53.10;47.63;;;16.70;99.90;;;;;;5003455;28;20467;-79
2022/03/26 10:49:36;;;;;;;53.22;48.13;;;16.80;99.90;;;;;;4970182;28;20050;-78
2022/03/26 10:52:17;;;;;;;55.42;49.53;;;16.70;99.90;;;;;;4981894;28;20081;-79
2022/03/26 10:54:46;;;;;;;51.92;46.40;;;16.70;99.90;;;;;;4987117;28;20045;-80
2022/03/26 10:57:13;;;;;;;53.42;48.35;;;16.90;99.90;;;;;;4984480;28;20100;-78
2022/03/26 10:59:46;;;;;;;52.63;47.63;;;16.50;99.90;;;;;;5004446;28;20049;-78
2022/03/26 11:02:13;;;;;;;51.10;46.38;;;17.10;99.90;;;;;;5015739;28;20178;-78
2022/03/26 11:04:40;;;;;;;54.17;48.65;;;17.20;99.90;;;;;;5010352;28;20064;-78
2022/03/26 11:07:07;;;;;;;56.50;50.58;;;17.20;99.90;;;;;;5013137;28;20056;-78
2022/03/26 11:09:34;;;;;;;53.80;48.05;;;17.20;99.90;;;;;;5009317;28;20268;-80
2022/03/26 11:12:01;;;;;;;49.33;44.67;;;17.10;99.90;;;;;;4987375;28;20042;-78
2022/03/26 11:14:33;;;;;;;52.88;47.88;;;16.70;99.90;;;;;;5002622;28;20057;-78
2022/03/26 11:17:12;;;;;;;57.70;50.90;;;16.60;99.90;;;;;;4997312;28;20527;-77
2022/03/26 11:19:41;;;;;;;53.95;48.20;;;16.90;99.90;;;;;;4990504;28;20432;-78
2022/03/26 11:22:33;;;;;;;55.20;49.67;;;17.00;99.90;;;;;;4991254;28;20126;-78
2022/03/26 11:25:12;;;;;;;53.20;46.00;;;16.80;99.90;;;;;;4993586;28;20452;-78
2022/03/26 11:28:07;;;;;;;55.00;49.17;;;16.80;99.90;;;;;;5007627;28;20053;-78
2022/03/26 11:30:43;;;;;;;47.92;42.80;;;16.80;99.90;;;;;;4986330;28;20459;-77
2022/03/26 11:33:12;;;;;;;45.75;41.50;;;17.30;99.90;;;;;;5009150;28;20073;-77
2022/03/26 11:35:54;;;;;;;47.50;42.90;;;17.30;99.90;;;;;;5007994;28;20130;-78
2022/03/26 11:38:20;;;;;;;51.40;46.35;;;17.10;99.90;;;;;;5005437;28;20126;-76
2022/03/26 11:40:55;;;;;;;50.58;45.58;;;17.00;99.90;;;;;;4986639;28;20037;-76
2022/03/26 11:43:42;;;;;;;50.97;45.78;;;17.00;99.90;;;;;;5005336;28;20056;-78
2022/03/26 11:52:12;;;;;;;52.83;47.38;;;17.50;99.90;;;;;;5025482;28;20061;-77
2022/03/26 11:54:38;;;;;;;52.53;47.45;;;17.60;99.90;;;;;;4989902;28;20116;-76
2022/03/26 11:57:20;;;;;;;51.85;46.35;;;17.50;99.90;;;;;;4986423;28;20695;-78
2022/03/26 11:59:48;;;;;;;53.38;47.83;;;17.10;99.90;;;;;;5005113;28;20100;-76
2022/03/26 12:02:28;;;;;;;54.50;48.90;;;17.10;99.90;;;;;;5005174;28;20046;-77
2022/03/26 12:04:59;;;;;;;48.20;43.72;;;17.00;99.90;;;;;;5004217;28;20579;-77
2022/03/26 12:07:30;;;;;;;51.85;46.70;;;16.90;99.90;;;;;;4958364;28;20141;-77
2022/03/26 12:10:09;;;;;;;48.83;44.50;;;17.00;99.90;;;;;;4983411;28;20587;-78
2022/03/26 12:12:48;;;;;;;46.45;42.13;;;17.20;99.90;;;;;;5004312;28;20108;-76
2022/03/26 12:15:15;;;;;;;49.85;44.67;;;17.20;99.90;;;;;;4986829;28;20101;-77
2022/03/26 12:18:03;;;;;;;46.50;41.88;;;17.40;99.90;;;;;;4985932;28;20145;-76
2022/03/26 12:20:45;;;;;;;40.70;37.45;;;17.30;99.90;;;;;;4986127;28;20046;-78
2022/03/26 12:23:13;;;;;;;36.17;33.90;;;17.40;99.90;;;;;;4987297;28;20050;-78
2022/03/26 12:25:46;;;;;;;37.25;34.47;;;17.20;99.90;;;;;;5004252;28;20301;-77
2022/03/26 12:28:16;;;;;;;39.78;36.83;;;17.20;99.90;;;;;;4986832;28;20042;-76
2022/03/26 12:30:48;;;;;;;36.80;34.10;;;17.30;99.90;;;;;;4984527;28;20169;-76
2022/03/26 12:33:15;;;;;;;35.58;32.92;;;17.60;99.90;;;;;;4986589;28;20104;-77
2022/03/26 12:35:44;;;;;;;35.97;33.50;;;17.70;99.90;;;;;;4990385;28;20042;-77
2022/03/26 12:38:11;;;;;;;37.25;34.80;;;17.60;99.90;;;;;;5004425;28;20053;-77
2022/03/26 12:40:39;;;;;;;36.65;33.92;;;17.50;99.90;;;;;;5002377;28;20331;-78
2022/03/26 12:43:10;;;;;;;37.25;34.65;;;17.40;99.90;;;;;;4986816;28;20053;-78
2022/03/26 12:45:37;;;;;;;38.30;35.42;;;17.30;99.90;;;;;;4985641;28;20669;-77
2022/03/26 12:48:12;;;;;;;39.45;36.35;;;16.90;99.90;;;;;;4988728;28;20056;-78